createdAt,value
2017-12-12T00:00:59.508Z,11.43
2017-12-12T00:03:28.380Z,9.17
2017-12-12T00:05:57.242Z,11.30
2017-12-12T00:08:26.078Z,10.57
2017-12-12T00:10:55.434Z,12.53
2017-12-12T00:13:24.332Z,10.83
2017-12-12T00:15:54.343Z,10.17
2017-12-12T00:18:23.245Z,10.20
2017-12-12T00:20:52.081Z,10.10
2017-12-12T00:23:20.939Z,11.10
2017-12-12T00:25:50.601Z,10.10
2017-12-12T00:28:19.428Z,12.23
2017-12-12T00:30:48.777Z,11.03
2017-12-12T00:33:17.675Z,10.80
2017-12-12T00:35:46.515Z,11.93
2017-12-12T00:38:15.360Z,10.90
2017-12-12T00:40:44.235Z,12.20
2017-12-12T00:43:13.081Z,12.83
2017-12-12T00:45:41.940Z,13.00
2017-12-12T00:48:10.816Z,13.83
2017-12-12T00:50:39.674Z,11.63
2017-12-12T00:53:08.528Z,14.83
2017-12-12T00:55:37.409Z,16.03
2017-12-12T00:58:07.086Z,12.83
2017-12-12T01:00:36.554Z,12.77
2017-12-12T01:03:05.429Z,15.70
2017-12-12T01:05:34.324Z,13.47
2017-12-12T01:08:03.168Z,15.83
2017-12-12T01:10:32.028Z,15.57
2017-12-12T01:13:00.860Z,17.23
2017-12-12T01:15:29.736Z,17.83
2017-12-12T01:17:58.618Z,18.47
2017-12-12T01:20:27.468Z,18.50
2017-12-12T01:22:56.318Z,19.83
2017-12-12T01:25:25.197Z,18.17
2017-12-12T01:27:54.060Z,17.10
2017-12-12T01:30:23.411Z,17.47
2017-12-12T01:32:52.295Z,16.63
2017-12-12T01:35:21.135Z,16.13
2017-12-12T01:37:49.972Z,16.00
2017-12-12T01:40:18.853Z,15.83
2017-12-12T01:42:47.677Z,14.50
2017-12-12T01:45:16.584Z,15.03
2017-12-12T01:47:45.436Z,16.60
2017-12-12T01:50:14.549Z,18.20
2017-12-12T01:52:44.207Z,17.37
2017-12-12T01:55:13.064Z,11.20
2017-12-12T01:57:42.276Z,14.17
2017-12-12T02:00:11.118Z,18.73
2017-12-12T02:02:39.996Z,16.00
2017-12-12T02:05:08.826Z,13.47
2017-12-12T02:07:38.730Z,12.93
2017-12-12T02:10:07.609Z,18.27
2017-12-12T02:12:36.438Z,17.93
2017-12-12T02:15:06.180Z,15.20
2017-12-12T02:17:35.044Z,12.97
2017-12-12T02:20:03.895Z,14.87
2017-12-12T02:22:32.742Z,17.80
2017-12-12T02:25:02.012Z,14.80
2017-12-12T02:27:30.869Z,13.83
2017-12-12T02:29:59.710Z,12.30
2017-12-12T02:32:28.577Z,14.00
2017-12-12T02:34:57.424Z,13.13
2017-12-12T02:37:26.278Z,13.20
2017-12-12T02:39:55.148Z,13.27
2017-12-12T02:42:24.004Z,18.27
2017-12-12T02:44:52.845Z,14.00
2017-12-12T02:47:22.623Z,16.13
2017-12-12T02:49:51.505Z,15.83
2017-12-12T02:52:20.381Z,17.00
2017-12-12T02:54:49.644Z,15.77
2017-12-12T02:57:18.499Z,17.37
2017-12-12T02:59:47.338Z,16.03
2017-12-12T03:02:16.187Z,15.37
2017-12-12T03:04:45.036Z,17.00
2017-12-12T03:07:13.872Z,15.87
2017-12-12T03:09:42.726Z,12.80
2017-12-12T03:12:11.582Z,16.03
2017-12-12T03:14:40.423Z,13.63
2017-12-12T03:17:09.331Z,15.27
2017-12-12T03:19:38.171Z,17.13
2017-12-12T03:22:08.096Z,15.80
2017-12-12T03:24:36.978Z,17.53
2017-12-12T03:27:05.848Z,16.37
2017-12-12T03:29:34.689Z,15.87
2017-12-12T03:32:03.561Z,17.60
2017-12-12T03:34:32.419Z,19.43
2017-12-12T03:37:01.271Z,18.53
2017-12-12T03:39:30.139Z,23.73
2017-12-12T03:41:59.024Z,19.50
2017-12-12T03:44:27.873Z,19.73
2017-12-12T03:46:56.739Z,17.50
2017-12-12T03:49:25.587Z,14.63
2017-12-12T03:51:54.434Z,17.77
2017-12-12T03:54:23.409Z,18.57
2017-12-12T03:56:53.269Z,15.20
2017-12-12T03:59:22.537Z,16.17
2017-12-12T04:01:51.399Z,14.93
2017-12-12T04:04:20.239Z,16.50
2017-12-12T04:06:49.122Z,17.30
2017-12-12T04:09:18.000Z,20.83
2017-12-12T04:11:46.825Z,13.77
2017-12-12T04:14:15.708Z,14.27
2017-12-12T04:16:44.567Z,18.10
2017-12-12T04:19:13.400Z,19.37
2017-12-12T04:21:42.243Z,14.90
2017-12-12T04:24:11.145Z,17.67
2017-12-12T04:26:40.051Z,16.70
2017-12-12T04:29:08.881Z,17.30
2017-12-12T04:31:38.415Z,14.40
2017-12-12T04:34:08.128Z,15.97
2017-12-12T04:36:36.995Z,15.10
2017-12-12T04:39:06.933Z,18.60
2017-12-12T04:41:35.801Z,14.23
2017-12-12T04:44:04.701Z,15.53
2017-12-12T04:46:33.592Z,22.10
2017-12-12T04:49:02.941Z,15.53
2017-12-12T04:51:31.768Z,15.30
2017-12-12T04:54:00.663Z,16.67
2017-12-12T04:56:29.502Z,20.70
2017-12-12T04:58:58.355Z,19.10
2017-12-12T05:01:27.213Z,17.60
2017-12-12T05:03:56.064Z,19.10
2017-12-12T05:06:24.919Z,17.90
2017-12-12T05:08:53.787Z,22.70
2017-12-12T05:11:22.670Z,23.27
2017-12-12T05:13:51.510Z,21.07
2017-12-12T05:16:20.670Z,20.03
2017-12-12T05:18:49.513Z,23.27
2017-12-12T05:21:18.366Z,23.87
2017-12-12T05:23:47.238Z,20.77
2017-12-12T05:26:16.076Z,25.87
2017-12-12T05:28:44.920Z,27.50
2017-12-12T05:31:14.417Z,27.03
2017-12-12T05:33:43.599Z,28.33
2017-12-12T05:36:12.459Z,22.27
2017-12-12T05:38:41.323Z,25.60
2017-12-12T05:41:10.267Z,26.13
2017-12-12T05:43:39.101Z,24.67
2017-12-12T05:46:08.057Z,21.00
2017-12-12T05:48:36.893Z,25.43
2017-12-12T05:51:05.735Z,23.63
2017-12-12T05:53:34.668Z,23.83
2017-12-12T05:56:03.565Z,26.87
2017-12-12T05:58:32.444Z,26.90
2017-12-12T06:01:01.341Z,25.90
2017-12-12T06:03:30.185Z,28.97
2017-12-12T06:05:59.073Z,35.93
2017-12-12T06:08:27.931Z,39.93
2017-12-12T06:10:57.826Z,31.00
2017-12-12T06:13:26.627Z,39.30
2017-12-12T06:15:55.481Z,39.20
2017-12-12T06:18:24.355Z,42.63
2017-12-12T06:20:53.217Z,41.07
2017-12-12T06:23:22.112Z,43.13
2017-12-12T06:25:50.959Z,41.50
2017-12-12T06:28:19.805Z,44.23
2017-12-12T06:30:48.695Z,45.27
2017-12-12T06:33:17.565Z,43.70
2017-12-12T06:35:46.419Z,36.93
2017-12-12T06:38:15.358Z,36.77
2017-12-12T06:40:44.234Z,35.90
2017-12-12T06:43:13.817Z,43.17
2017-12-12T06:45:42.728Z,43.90
2017-12-12T06:48:12.499Z,50.27
2017-12-12T06:50:41.399Z,45.13
2017-12-12T06:53:10.266Z,45.43
2017-12-12T06:55:39.105Z,48.97
2017-12-12T06:58:07.945Z,53.37
2017-12-12T07:00:36.803Z,49.03
2017-12-12T07:03:06.051Z,50.20
2017-12-12T07:05:34.898Z,46.23
2017-12-12T07:08:03.793Z,40.77
2017-12-12T07:10:32.638Z,45.63
2017-12-12T07:13:01.568Z,49.43
2017-12-12T07:15:30.438Z,47.87
2017-12-12T07:18:00.080Z,46.20
2017-12-12T07:20:28.920Z,47.43
2017-12-12T07:22:57.785Z,53.83
2017-12-12T07:25:26.623Z,44.83
2017-12-12T07:27:55.465Z,50.70
2017-12-12T07:30:24.349Z,52.43
2017-12-12T07:32:53.209Z,51.87
2017-12-12T07:35:22.084Z,47.80
2017-12-12T07:37:50.961Z,52.30
2017-12-12T07:40:19.859Z,48.30
2017-12-12T07:42:48.735Z,51.33
2017-12-12T07:45:17.735Z,48.70
2017-12-12T07:47:47.992Z,48.53
2017-12-12T07:50:16.914Z,45.87
2017-12-12T07:52:45.798Z,42.27
2017-12-12T07:55:14.677Z,44.33
2017-12-12T07:57:43.625Z,51.23
2017-12-12T08:00:12.487Z,46.00
2017-12-12T08:02:41.324Z,45.07
2017-12-12T08:05:10.191Z,46.97
2017-12-12T08:07:39.078Z,46.07
2017-12-12T08:10:07.920Z,50.60
2017-12-12T08:12:37.728Z,51.90
2017-12-12T08:15:06.582Z,56.83
2017-12-12T08:17:35.445Z,52.57
2017-12-12T08:20:04.319Z,55.23
2017-12-12T08:22:33.166Z,49.10
2017-12-12T08:25:02.253Z,63.87
2017-12-12T08:27:31.956Z,57.53
2017-12-12T08:30:01.465Z,51.50
2017-12-12T08:32:32.149Z,49.03
2017-12-12T08:35:01.021Z,55.73
2017-12-12T08:37:29.877Z,54.73
2017-12-12T08:39:58.728Z,52.60
2017-12-12T08:42:27.599Z,47.17
2017-12-12T08:44:56.448Z,48.13
2017-12-12T08:47:25.283Z,48.23
2017-12-12T08:49:54.177Z,47.30
2017-12-12T08:52:23.027Z,51.60
2017-12-12T08:54:51.883Z,47.93
2017-12-12T08:57:20.853Z,47.50
2017-12-12T08:59:49.724Z,45.10
2017-12-12T09:02:18.570Z,48.47
2017-12-12T09:04:47.471Z,52.13
2017-12-12T09:07:16.314Z,52.67
2017-12-12T09:09:45.164Z,59.37
2017-12-12T09:12:14.189Z,62.83
2017-12-12T09:14:43.166Z,60.10
2017-12-12T09:17:12.035Z,64.77
2017-12-12T09:19:40.903Z,65.57
2017-12-12T09:22:09.781Z,60.27
2017-12-12T09:24:38.624Z,63.50
2017-12-12T09:27:07.519Z,53.97
2017-12-12T09:29:36.363Z,55.57
2017-12-12T09:32:06.180Z,53.13
2017-12-12T09:34:35.109Z,59.90
2017-12-12T09:37:04.035Z,54.53
2017-12-12T09:39:32.882Z,58.53
2017-12-12T09:42:01.816Z,52.87
2017-12-12T09:44:30.724Z,51.73
2017-12-12T09:46:59.559Z,50.87
2017-12-12T09:49:28.443Z,46.70
2017-12-12T09:51:57.285Z,39.97
2017-12-12T09:54:26.135Z,43.63
2017-12-12T09:56:55.007Z,40.87
2017-12-12T09:59:23.853Z,40.80
2017-12-12T10:01:53.078Z,38.03
2017-12-12T10:04:21.947Z,39.50
2017-12-12T10:06:50.799Z,42.17
2017-12-12T10:09:19.636Z,40.33
2017-12-12T10:11:48.489Z,54.20
2017-12-12T10:14:17.341Z,37.07
2017-12-12T10:16:46.203Z,36.27
2017-12-12T10:19:15.125Z,36.20
2017-12-12T10:21:44.019Z,36.27
2017-12-12T10:24:12.863Z,34.70
2017-12-12T10:26:41.811Z,38.80
2017-12-12T10:29:10.716Z,37.17
2017-12-12T10:31:39.557Z,35.53
2017-12-12T10:34:08.430Z,47.43
2017-12-12T10:36:37.275Z,35.20
2017-12-12T10:39:06.115Z,52.77
2017-12-12T10:41:34.965Z,35.13
2017-12-12T10:44:03.841Z,32.00
2017-12-12T10:46:32.961Z,29.27
2017-12-12T10:49:01.844Z,34.23
2017-12-12T10:51:30.725Z,38.33
2017-12-12T10:53:59.621Z,34.30
2017-12-12T10:56:28.491Z,39.10
2017-12-12T10:58:57.345Z,38.40
2017-12-12T11:01:26.195Z,34.73
2017-12-12T11:03:56.079Z,33.03
2017-12-12T11:06:24.933Z,38.23
2017-12-12T11:08:53.787Z,34.10
2017-12-12T11:11:22.649Z,39.43
2017-12-12T11:13:51.499Z,43.97
2017-12-12T11:16:20.337Z,50.30
2017-12-12T11:18:49.243Z,50.87
2017-12-12T11:21:18.385Z,45.10
2017-12-12T11:23:47.805Z,53.03
2017-12-12T11:26:16.734Z,52.47
2017-12-12T11:28:45.570Z,44.57
2017-12-12T11:31:14.445Z,43.63
2017-12-12T11:33:43.318Z,41.67
2017-12-12T11:36:12.193Z,40.87
2017-12-12T11:38:41.064Z,37.73
2017-12-12T11:41:09.935Z,36.90
2017-12-12T11:43:38.795Z,34.10
2017-12-12T11:46:07.651Z,33.60
2017-12-12T11:48:36.529Z,29.23
2017-12-12T11:51:05.385Z,29.13
2017-12-12T11:53:34.235Z,26.97
2017-12-12T11:56:03.142Z,24.90
2017-12-12T11:58:32.043Z,21.20
2017-12-12T12:01:01.441Z,23.10
2017-12-12T12:03:30.429Z,22.30
2017-12-12T12:05:59.288Z,22.87
2017-12-12T12:08:28.165Z,27.93
2017-12-12T12:10:57.129Z,24.57
2017-12-12T12:13:25.982Z,23.23
2017-12-12T12:15:54.827Z,26.80
2017-12-12T12:18:23.765Z,22.47
2017-12-12T12:20:52.601Z,20.53
2017-12-12T12:23:21.506Z,22.77
2017-12-12T12:25:50.364Z,23.17
2017-12-12T12:28:19.207Z,24.53
2017-12-12T12:30:48.081Z,25.17
2017-12-12T12:33:17.322Z,26.30
2017-12-12T12:35:46.173Z,26.50
2017-12-12T12:38:15.034Z,27.50
2017-12-12T12:40:43.899Z,25.30
2017-12-12T12:43:13.319Z,24.80
2017-12-12T12:45:42.170Z,24.07
2017-12-12T12:48:11.030Z,25.90
2017-12-12T12:50:39.902Z,22.57
2017-12-12T12:53:08.807Z,21.97
2017-12-12T12:55:37.684Z,22.67
2017-12-12T12:58:07.797Z,22.43
2017-12-12T13:00:37.415Z,25.80
2017-12-12T13:03:06.254Z,28.50
2017-12-12T13:05:35.139Z,29.43
2017-12-12T13:08:04.006Z,29.43
2017-12-12T13:10:32.847Z,26.60
2017-12-12T13:13:01.768Z,24.77
2017-12-12T13:15:30.641Z,23.40
2017-12-12T13:18:00.336Z,24.70
2017-12-12T13:20:29.197Z,20.70
2017-12-12T13:22:58.058Z,19.33
2017-12-12T13:25:27.700Z,20.13
2017-12-12T13:27:56.543Z,18.20
2017-12-12T13:30:25.415Z,19.00
2017-12-12T13:32:54.354Z,18.90
2017-12-12T13:35:23.208Z,17.73
2017-12-12T13:37:52.053Z,21.27
2017-12-12T13:40:20.921Z,19.87
2017-12-12T13:42:49.811Z,20.60
2017-12-12T13:45:18.858Z,59.73
2017-12-12T13:47:48.700Z,29.83
2017-12-12T13:50:17.747Z,28.63
2017-12-12T13:52:46.645Z,27.57
2017-12-12T13:55:15.542Z,24.00
2017-12-12T13:57:45.244Z,26.80
2017-12-12T14:00:14.123Z,26.57
2017-12-12T14:02:42.967Z,26.83
2017-12-12T14:05:12.224Z,29.87
2017-12-12T14:07:41.875Z,33.03
2017-12-12T14:10:11.554Z,30.93
2017-12-12T14:12:40.495Z,37.77
2017-12-12T14:15:09.365Z,38.83
2017-12-12T14:17:38.217Z,40.20
2017-12-12T14:20:07.068Z,36.03
2017-12-12T14:22:35.944Z,40.77
2017-12-12T14:25:05.360Z,45.63
2017-12-12T14:27:34.240Z,47.60
2017-12-12T14:30:03.107Z,43.00
2017-12-12T14:32:31.964Z,48.97
2017-12-12T14:35:00.811Z,44.80
2017-12-12T14:37:29.667Z,46.40
2017-12-12T14:39:58.530Z,48.03
2017-12-12T14:42:27.730Z,47.13
2017-12-12T14:44:57.528Z,41.33
2017-12-12T14:47:26.362Z,43.77
2017-12-12T14:49:55.206Z,40.07
2017-12-12T14:52:24.180Z,39.37
2017-12-12T14:54:53.030Z,44.37
2017-12-12T14:57:21.915Z,44.50
2017-12-12T14:59:50.783Z,44.67
2017-12-12T15:02:19.651Z,47.83
2017-12-12T15:04:49.327Z,45.50
2017-12-12T15:07:18.198Z,45.00
2017-12-12T15:09:47.061Z,47.87
2017-12-12T15:12:16.819Z,47.40
2017-12-12T15:14:45.671Z,48.70
2017-12-12T15:17:14.532Z,48.13
2017-12-12T15:19:43.392Z,48.53
2017-12-12T15:22:12.492Z,46.20
2017-12-12T15:24:41.337Z,43.43
2017-12-12T15:27:10.202Z,48.83
2017-12-12T15:29:39.053Z,48.77
2017-12-12T15:32:07.936Z,48.67
2017-12-12T15:34:36.849Z,46.03
2017-12-12T15:37:05.736Z,44.87
2017-12-12T15:39:34.580Z,53.63
2017-12-12T15:42:03.468Z,47.33
2017-12-12T15:44:32.335Z,51.73
2017-12-12T15:47:01.232Z,52.23
2017-12-12T15:49:30.068Z,54.33
2017-12-12T15:51:58.943Z,55.90
2017-12-12T15:54:28.322Z,51.07
2017-12-12T15:56:57.213Z,53.50
2017-12-12T15:59:26.091Z,58.77
2017-12-12T16:01:54.931Z,65.67
2017-12-12T16:04:23.849Z,61.90
2017-12-12T16:06:52.695Z,69.80
2017-12-12T16:09:21.557Z,58.60
2017-12-12T16:11:50.408Z,77.07
2017-12-12T16:14:19.281Z,74.37
2017-12-12T16:16:48.184Z,71.50
2017-12-12T16:19:17.375Z,71.27
2017-12-12T16:21:46.596Z,73.43
2017-12-12T16:24:15.449Z,66.70
2017-12-12T16:26:44.330Z,71.40
2017-12-12T16:29:13.227Z,77.27
2017-12-12T16:31:42.103Z,73.40
2017-12-12T16:34:11.006Z,78.50
2017-12-12T16:36:40.178Z,77.37
2017-12-12T16:39:09.017Z,78.93
2017-12-12T16:41:38.321Z,84.27
2017-12-12T16:44:08.007Z,82.07
2017-12-12T16:46:36.869Z,86.03
2017-12-12T16:49:05.748Z,80.90
2017-12-12T16:51:34.671Z,83.77
2017-12-12T16:54:03.527Z,86.40
2017-12-12T16:56:32.365Z,87.27
2017-12-12T16:59:01.262Z,79.50
2017-12-12T17:01:30.115Z,79.50
2017-12-12T17:03:58.947Z,76.03
2017-12-12T17:06:27.921Z,85.00
2017-12-12T17:08:56.777Z,77.43
2017-12-12T17:11:25.628Z,77.03
2017-12-12T17:13:54.489Z,72.33
2017-12-12T17:16:23.327Z,78.43
2017-12-12T17:18:53.015Z,76.03
2017-12-12T17:21:22.187Z,72.20
2017-12-12T17:23:51.025Z,69.90
2017-12-12T17:26:19.912Z,70.87
2017-12-12T17:28:48.776Z,70.87
2017-12-12T17:31:17.623Z,70.57
2017-12-12T17:33:46.471Z,68.63
2017-12-12T17:36:15.355Z,71.93
2017-12-12T17:38:44.203Z,68.33
2017-12-12T17:41:13.048Z,64.97
2017-12-12T17:43:41.925Z,66.60
2017-12-12T17:46:10.767Z,90.77
2017-12-12T17:48:40.307Z,67.70
2017-12-12T17:51:10.017Z,88.43
2017-12-12T17:53:38.866Z,163.43
2017-12-12T17:56:07.718Z,114.30
2017-12-12T17:58:36.635Z,63.67
2017-12-12T18:01:05.489Z,66.57
2017-12-12T18:03:35.333Z,62.93
2017-12-12T18:06:06.843Z,64.30
2017-12-12T18:08:43.418Z,64.47
2017-12-12T18:11:12.301Z,64.80
2017-12-12T18:13:41.153Z,63.63
2017-12-12T18:16:10.011Z,61.23
2017-12-12T18:18:38.895Z,61.00
2017-12-12T18:21:07.737Z,71.47
2017-12-12T18:23:36.745Z,66.53
2017-12-12T18:26:06.161Z,57.37
2017-12-12T18:28:35.149Z,61.57
2017-12-12T18:31:04.133Z,57.93
2017-12-12T18:33:33.029Z,60.23
2017-12-12T18:36:01.921Z,60.47
2017-12-12T18:38:31.598Z,65.90
2017-12-12T18:41:00.467Z,62.73
2017-12-12T18:43:29.340Z,59.30
2017-12-12T18:45:58.213Z,60.93
2017-12-12T18:48:27.594Z,57.80
2017-12-12T18:50:56.427Z,60.03
2017-12-12T18:53:25.276Z,59.40
2017-12-12T18:55:54.156Z,53.60
2017-12-12T18:58:23.680Z,61.13
2017-12-12T19:00:52.644Z,55.67
2017-12-12T19:03:22.480Z,61.83
2017-12-12T19:05:51.388Z,57.70
2017-12-12T19:08:20.375Z,63.03
2017-12-12T19:10:49.339Z,64.00
2017-12-12T19:13:18.225Z,69.17
2017-12-12T19:15:47.275Z,58.97
2017-12-12T19:18:16.159Z,57.93
2017-12-12T19:20:45.131Z,63.53
2017-12-12T19:23:14.215Z,64.43
2017-12-12T19:25:43.296Z,59.13
2017-12-12T19:28:12.173Z,58.63
2017-12-12T19:30:41.760Z,63.33
2017-12-12T19:33:10.863Z,59.80
2017-12-12T19:35:39.813Z,54.50
2017-12-12T19:38:09.385Z,58.70
2017-12-12T19:40:38.521Z,63.87
2017-12-12T19:43:07.640Z,57.50
2017-12-12T19:45:36.749Z,54.73
2017-12-12T19:48:05.904Z,59.70
2017-12-12T19:50:35.022Z,42.23
2017-12-12T19:53:04.171Z,58.40
2017-12-12T19:55:33.334Z,61.90
2017-12-12T19:58:02.268Z,59.43
2017-12-12T20:00:31.346Z,61.27
2017-12-12T20:03:00.266Z,63.20
2017-12-12T20:05:29.532Z,56.10
2017-12-12T20:07:58.418Z,62.80
2017-12-12T20:10:28.344Z,69.13
2017-12-12T20:12:57.281Z,63.57
2017-12-12T20:15:26.462Z,68.63
2017-12-12T20:17:55.616Z,65.33
2017-12-12T20:20:24.502Z,66.57
2017-12-12T20:22:53.572Z,70.00
2017-12-12T20:25:22.698Z,64.43
2017-12-12T20:27:51.960Z,67.87
2017-12-12T20:30:21.460Z,72.73
2017-12-12T20:32:50.396Z,61.73
2017-12-12T20:35:19.341Z,68.27
2017-12-12T20:37:48.186Z,54.60
2017-12-12T20:40:17.407Z,56.13
2017-12-12T20:42:46.518Z,61.97
2017-12-12T20:45:15.640Z,52.70
2017-12-12T20:47:44.552Z,65.90
2017-12-12T20:50:13.889Z,58.63
2017-12-12T20:52:43.505Z,66.20
2017-12-12T20:55:13.040Z,59.67
2017-12-12T20:57:41.931Z,65.83
2017-12-12T21:00:11.046Z,65.10
2017-12-12T21:02:41.044Z,59.17
2017-12-12T21:05:12.022Z,59.97
2017-12-12T21:07:45.902Z,64.73
2017-12-12T21:10:14.965Z,58.40
2017-12-12T21:12:44.028Z,55.80
2017-12-12T21:15:13.094Z,62.40
2017-12-12T21:17:41.964Z,65.63
2017-12-12T21:20:11.515Z,59.60
2017-12-12T21:22:40.421Z,59.40
2017-12-12T21:25:09.314Z,55.53
2017-12-12T21:27:38.171Z,59.47
2017-12-12T21:30:07.048Z,62.63
2017-12-12T21:32:35.896Z,50.60
2017-12-12T21:35:04.968Z,51.27
2017-12-12T21:37:34.524Z,52.57
2017-12-12T21:40:03.448Z,48.33
2017-12-12T21:42:32.304Z,55.80
2017-12-12T21:45:01.186Z,52.57
2017-12-12T21:47:30.024Z,47.37
2017-12-12T21:49:58.941Z,55.67
2017-12-12T21:52:27.797Z,51.20
2017-12-12T21:54:56.641Z,47.47
2017-12-12T21:57:25.476Z,47.20
2017-12-12T21:59:55.289Z,46.17
2017-12-12T22:02:24.361Z,47.10
2017-12-12T22:04:53.214Z,54.73
2017-12-12T22:07:23.045Z,49.03
2017-12-12T22:09:51.939Z,42.67
2017-12-12T22:12:20.785Z,50.27
2017-12-12T22:14:49.708Z,46.03
2017-12-12T22:17:19.411Z,43.50
2017-12-12T22:19:48.256Z,43.97
2017-12-12T22:22:17.129Z,43.77
2017-12-12T22:24:46.081Z,44.20
2017-12-12T22:27:14.947Z,42.93
2017-12-12T22:29:44.333Z,38.57
2017-12-12T22:32:13.287Z,37.23
2017-12-12T22:34:42.356Z,38.77
2017-12-12T22:37:11.211Z,44.63
2017-12-12T22:39:40.071Z,37.93
2017-12-12T22:42:08.925Z,35.23
2017-12-12T22:44:37.803Z,32.57
2017-12-12T22:47:06.727Z,32.53
2017-12-12T22:52:10.867Z,31.93
2017-12-12T22:54:39.727Z,30.27
2017-12-12T22:57:08.561Z,33.27
2017-12-12T22:59:37.541Z,31.80
2017-12-12T23:02:07.393Z,35.33
2017-12-12T23:04:36.239Z,20.87
2017-12-12T23:07:05.111Z,37.67
2017-12-12T23:09:34.050Z,33.77
2017-12-12T23:12:02.907Z,35.57
2017-12-12T23:14:32.391Z,22.37
2017-12-12T23:17:01.225Z,38.33
2017-12-12T23:19:30.069Z,28.30
2017-12-12T23:21:58.939Z,27.83
2017-12-12T23:24:27.791Z,27.83
2017-12-12T23:26:57.603Z,31.17
2017-12-12T23:29:26.468Z,33.43
2017-12-12T23:31:55.333Z,31.50
2017-12-12T23:34:24.183Z,29.20
2017-12-12T23:36:53.065Z,26.57
2017-12-12T23:39:21.899Z,33.60
2017-12-12T23:41:50.734Z,30.60
2017-12-12T23:44:19.607Z,29.70
2017-12-12T23:46:48.475Z,27.33
2017-12-12T23:49:17.335Z,28.57
2017-12-12T23:51:46.199Z,27.83
2017-12-12T23:54:15.059Z,28.47
2017-12-12T23:56:43.907Z,28.33
2017-12-12T23:59:12.799Z,26.57
